createdAt,value
2018-02-14T00:00:21.560Z,82.79
2018-02-14T00:01:21.579Z,82.60
2018-02-14T00:02:21.595Z,83.26
2018-02-14T00:03:21.605Z,83.07
2018-02-14T00:04:21.621Z,82.60
2018-02-14T00:05:21.642Z,83.07
2018-02-14T00:06:21.657Z,83.54
2018-02-14T00:07:21.668Z,82.98
2018-02-14T00:08:21.686Z,82.98
2018-02-14T00:09:21.704Z,83.17
2018-02-14T00:10:21.720Z,83.26
2018-02-14T00:11:21.731Z,83.17
2018-02-14T00:12:21.746Z,83.36
2018-02-14T00:13:21.767Z,82.88
2018-02-14T00:14:21.783Z,82.88
2018-02-14T00:15:21.792Z,82.98
2018-02-14T00:16:21.815Z,82.88
2018-02-14T00:17:21.823Z,82.98
2018-02-14T00:18:21.840Z,82.88
2018-02-14T00:19:21.862Z,83.36
2018-02-14T00:20:21.877Z,83.36
2018-02-14T00:21:21.886Z,83.64
2018-02-14T00:22:21.901Z,83.36
2018-02-14T00:23:21.923Z,83.26
2018-02-14T00:24:21.938Z,83.36
2018-02-14T00:25:21.948Z,83.54
2018-02-14T00:26:21.965Z,83.45
2018-02-14T00:27:21.986Z,83.83
2018-02-14T00:28:22.001Z,84.11
2018-02-14T00:29:22.010Z,84.11
2018-02-14T00:30:22.026Z,84.01
2018-02-14T00:31:22.048Z,83.54
2018-02-14T00:32:22.062Z,84.01
2018-02-14T00:33:22.074Z,84.01
2018-02-14T00:34:22.088Z,83.73
2018-02-14T00:35:22.110Z,84.01
2018-02-14T00:36:22.125Z,83.83
2018-02-14T00:37:22.133Z,83.83
2018-02-14T00:38:22.150Z,84.01
2018-02-14T00:39:22.177Z,83.73
2018-02-14T00:40:22.187Z,84.11
2018-02-14T00:41:22.202Z,84.39
2018-02-14T00:42:22.216Z,83.92
2018-02-14T00:43:22.228Z,84.01
2018-02-14T00:44:22.243Z,83.73
2018-02-14T00:45:22.264Z,83.83
2018-02-14T00:46:22.285Z,84.20
2018-02-14T00:47:22.296Z,83.83
2018-02-14T00:48:22.306Z,83.83
2018-02-14T00:49:22.326Z,84.39
2018-02-14T00:50:22.341Z,84.11
2018-02-14T00:51:22.352Z,84.11
2018-02-14T00:52:22.367Z,83.83
2018-02-14T00:53:22.388Z,84.01
2018-02-14T00:54:22.403Z,84.30
2018-02-14T00:55:22.414Z,84.68
2018-02-14T00:56:22.428Z,84.86
2018-02-14T00:57:22.443Z,84.30
2018-02-14T00:58:22.465Z,84.68
2018-02-14T00:59:22.480Z,84.20
2018-02-14T01:00:22.496Z,84.68
2018-02-14T01:01:22.505Z,85.05
2018-02-14T01:02:22.525Z,84.49
2018-02-14T01:03:22.536Z,84.58
2018-02-14T01:04:22.553Z,84.86
2018-02-14T01:05:22.566Z,84.77
2018-02-14T01:06:22.588Z,84.58
2018-02-14T01:07:22.598Z,84.30
2018-02-14T01:08:22.613Z,84.58
2018-02-14T01:09:22.634Z,84.68
2018-02-14T01:10:22.650Z,84.86
2018-02-14T01:11:22.665Z,84.58
2018-02-14T01:12:22.674Z,84.49
2018-02-14T01:13:22.695Z,84.96
2018-02-14T01:14:22.711Z,84.58
2018-02-14T01:15:22.721Z,84.58
2018-02-14T01:16:22.737Z,84.96
2018-02-14T01:17:22.757Z,85.15
2018-02-14T01:18:22.771Z,85.15
2018-02-14T01:19:22.782Z,85.05
2018-02-14T01:20:22.798Z,84.96
2018-02-14T01:21:22.813Z,84.96
2018-02-14T01:22:22.828Z,85.15
2018-02-14T01:23:22.851Z,84.96
2018-02-14T01:24:22.860Z,85.43
2018-02-14T01:25:22.878Z,85.43
2018-02-14T01:26:22.891Z,85.43
2018-02-14T01:27:22.905Z,85.34
2018-02-14T01:28:22.921Z,85.05
2018-02-14T01:29:22.941Z,85.15
2018-02-14T01:30:22.951Z,84.96
2018-02-14T01:31:22.972Z,85.05
2018-02-14T01:32:22.982Z,85.15
2018-02-14T01:33:23.003Z,85.05
2018-02-14T01:34:23.012Z,85.24
2018-02-14T01:35:23.033Z,85.34
2018-02-14T01:36:23.049Z,85.43
2018-02-14T01:37:23.058Z,85.72
2018-02-14T01:38:23.078Z,85.53
2018-02-14T01:39:23.088Z,85.62
2018-02-14T01:40:23.104Z,85.43
2018-02-14T01:41:23.119Z,85.34
2018-02-14T01:42:23.139Z,85.43
2018-02-14T01:43:23.149Z,85.43
2018-02-14T01:44:23.168Z,85.43
2018-02-14T01:45:23.184Z,85.34
2018-02-14T01:46:23.204Z,85.91
2018-02-14T01:47:23.211Z,85.62
2018-02-14T01:48:23.232Z,85.81
2018-02-14T01:49:23.241Z,86.00
2018-02-14T01:50:23.256Z,86.00
2018-02-14T01:51:23.278Z,85.81
2018-02-14T01:52:23.288Z,85.91
2018-02-14T01:53:23.308Z,85.86
2018-02-14T01:54:23.323Z,85.91
2018-02-14T01:55:23.338Z,85.91
2018-02-14T01:56:23.352Z,85.62
2018-02-14T01:57:23.367Z,85.91
2018-02-14T01:58:23.378Z,85.72
2018-02-14T01:59:23.399Z,85.81
2018-02-14T02:00:23.415Z,85.72
2018-02-14T02:01:23.423Z,85.81
2018-02-14T02:02:23.445Z,85.91
2018-02-14T02:03:23.455Z,85.91
2018-02-14T02:04:23.469Z,85.72
2018-02-14T02:05:23.490Z,85.91
2018-02-14T02:06:23.500Z,85.81
2018-02-14T02:07:23.520Z,85.72
2018-02-14T02:08:23.536Z,85.62
2018-02-14T02:09:23.550Z,86.00
2018-02-14T02:10:23.560Z,85.77
2018-02-14T02:11:23.581Z,86.00
2018-02-14T02:12:23.596Z,85.81
2018-02-14T02:13:23.605Z,86.15
2018-02-14T02:14:23.621Z,86.33
2018-02-14T02:15:23.635Z,86.43
2018-02-14T02:16:23.652Z,86.80
2018-02-14T02:17:23.672Z,86.52
2018-02-14T02:18:23.688Z,86.80
2018-02-14T02:19:23.698Z,86.71
2018-02-14T02:20:23.712Z,86.99
2018-02-14T02:21:23.732Z,86.71
2018-02-14T02:22:23.743Z,86.15
2018-02-14T02:23:23.762Z,86.43
2018-02-14T02:24:23.773Z,86.71
2018-02-14T02:25:23.788Z,86.33
2018-02-14T02:26:23.808Z,86.62
2018-02-14T02:27:23.818Z,86.33
2018-02-14T02:28:23.833Z,86.33
2018-02-14T02:29:23.853Z,86.71
2018-02-14T02:30:23.869Z,86.15
2018-02-14T02:31:23.885Z,86.33
2018-02-14T02:32:23.898Z,86.62
2018-02-14T02:33:23.914Z,86.71
2018-02-14T02:34:23.924Z,86.71
2018-02-14T02:35:23.945Z,86.80
2018-02-14T02:36:23.955Z,86.90
2018-02-14T02:37:23.977Z,86.99
2018-02-14T02:38:23.988Z,86.80
2018-02-14T02:39:23.999Z,86.90
2018-02-14T02:40:24.020Z,87.18
2018-02-14T02:41:24.031Z,86.62
2018-02-14T02:42:24.050Z,87.28
2018-02-14T02:43:24.060Z,87.18
2018-02-14T02:44:24.084Z,87.37
2018-02-14T02:45:24.096Z,87.37
2018-02-14T02:46:24.121Z,87.47
2018-02-14T02:47:24.120Z,87.37
2018-02-14T02:48:24.142Z,87.47
2018-02-14T02:49:24.150Z,86.90
2018-02-14T02:50:24.171Z,86.80
2018-02-14T02:51:24.181Z,86.99
2018-02-14T02:52:24.200Z,87.37
2018-02-14T02:53:24.210Z,87.47
2018-02-14T02:54:24.232Z,87.47
2018-02-14T02:55:24.241Z,87.28
2018-02-14T02:56:24.262Z,87.47
2018-02-14T02:57:24.271Z,86.99
2018-02-14T02:58:24.284Z,87.85
2018-02-14T02:59:24.307Z,88.04
2018-02-14T03:00:24.323Z,88.13
2018-02-14T03:01:24.332Z,88.04
2018-02-14T03:02:24.347Z,88.42
2018-02-14T03:03:24.367Z,88.42
2018-02-14T03:04:24.383Z,88.42
2018-02-14T03:05:24.391Z,88.60
2018-02-14T03:06:24.431Z,88.42
2018-02-14T03:07:24.427Z,88.60
2018-02-14T03:08:24.443Z,88.42
2018-02-14T03:09:24.451Z,88.51
2018-02-14T03:10:24.468Z,88.79
2018-02-14T03:11:24.488Z,88.98
2018-02-14T03:12:24.504Z,88.89
2018-02-14T03:13:24.510Z,88.89
2018-02-14T03:14:24.527Z,88.70
2018-02-14T03:15:24.547Z,88.60
2018-02-14T03:16:24.561Z,88.79
2018-02-14T03:17:24.571Z,89.26
2018-02-14T03:18:24.586Z,89.36
2018-02-14T03:19:24.608Z,89.17
2018-02-14T03:20:24.623Z,89.36
2018-02-14T03:21:24.631Z,89.26
2018-02-14T03:22:24.646Z,88.89
2018-02-14T03:23:24.671Z,89.07
2018-02-14T03:24:24.682Z,89.45
2018-02-14T03:25:24.690Z,89.92
2018-02-14T03:26:24.707Z,89.45
2018-02-14T03:27:24.727Z,89.64
2018-02-14T03:28:24.736Z,89.73
2018-02-14T03:29:24.756Z,89.73
2018-02-14T03:30:24.767Z,89.17
2018-02-14T03:31:24.791Z,89.45
2018-02-14T03:32:24.796Z,89.64
2018-02-14T03:33:24.816Z,89.83
2018-02-14T03:34:24.825Z,89.73
2018-02-14T03:35:24.845Z,89.64
2018-02-14T03:36:24.858Z,89.64
2018-02-14T03:37:24.876Z,89.36
2018-02-14T03:38:24.885Z,89.45
2018-02-14T03:39:24.909Z,89.54
2018-02-14T03:40:24.916Z,89.54
2018-02-14T03:41:24.935Z,89.64
2018-02-14T03:42:24.945Z,90.02
2018-02-14T03:43:24.965Z,89.45
2018-02-14T03:44:24.974Z,89.36
2018-02-14T03:45:24.993Z,89.45
2018-02-14T03:46:25.004Z,89.54
2018-02-14T03:47:25.025Z,89.45
2018-02-14T03:48:25.033Z,89.26
2018-02-14T03:49:25.054Z,89.45
2018-02-14T03:50:25.062Z,89.64
2018-02-14T03:51:25.083Z,89.45
2018-02-14T03:52:25.094Z,89.07
2018-02-14T03:53:25.112Z,88.98
2018-02-14T03:54:25.127Z,89.64
2018-02-14T03:55:25.136Z,89.64
2018-02-14T03:56:25.158Z,89.54
2018-02-14T03:57:25.166Z,89.07
2018-02-14T03:58:25.181Z,89.26
2018-02-14T03:59:25.201Z,89.17
2018-02-14T04:00:25.217Z,89.12
2018-02-14T04:01:25.226Z,89.26
2018-02-14T04:02:25.246Z,89.64
2018-02-14T04:03:25.256Z,89.64
2018-02-14T04:04:25.276Z,89.17
2018-02-14T04:05:25.286Z,89.17
2018-02-14T04:06:25.305Z,89.07
2018-02-14T04:07:25.315Z,88.89
2018-02-14T04:08:25.366Z,89.64
2018-02-14T04:09:25.349Z,89.45
2018-02-14T04:10:25.360Z,89.26
2018-02-14T04:11:25.379Z,89.45
2018-02-14T04:12:25.400Z,89.26
2018-02-14T04:13:25.402Z,89.45
2018-02-14T04:14:25.423Z,89.17
2018-02-14T04:15:25.433Z,89.45
2018-02-14T04:16:25.449Z,89.26
2018-02-14T04:17:25.468Z,89.45
2018-02-14T04:18:25.483Z,89.26
2018-02-14T04:19:25.492Z,89.45
2018-02-14T04:20:25.507Z,89.17
2018-02-14T04:21:25.525Z,89.17
2018-02-14T04:22:25.542Z,89.54
2018-02-14T04:23:25.552Z,89.45
2018-02-14T04:24:25.568Z,89.83
2018-02-14T04:25:25.585Z,89.45
2018-02-14T04:26:25.597Z,89.45
2018-02-14T04:27:25.616Z,89.54
2018-02-14T04:28:25.631Z,89.45
2018-02-14T04:29:25.640Z,89.36
2018-02-14T04:30:25.660Z,89.45
2018-02-14T04:31:25.671Z,89.64
2018-02-14T04:32:25.689Z,89.26
2018-02-14T04:33:25.699Z,89.45
2018-02-14T04:34:25.713Z,89.45
2018-02-14T04:35:25.735Z,89.54
2018-02-14T04:36:25.751Z,89.17
2018-02-14T04:37:25.758Z,89.40
2018-02-14T04:38:25.774Z,89.69
2018-02-14T04:39:25.794Z,90.16
2018-02-14T04:40:25.808Z,89.97
2018-02-14T04:41:25.816Z,89.45
2018-02-14T04:42:25.832Z,89.40
2018-02-14T04:43:25.852Z,89.12
2018-02-14T04:44:25.862Z,89.40
2018-02-14T04:45:25.882Z,89.59
2018-02-14T04:46:25.896Z,90.16
2018-02-14T04:47:25.907Z,89.40
2018-02-14T04:48:25.927Z,89.40
2018-02-14T04:49:25.934Z,89.59
2018-02-14T04:50:25.957Z,89.69
2018-02-14T04:51:25.967Z,89.59
2018-02-14T04:52:25.986Z,89.31
2018-02-14T04:53:25.994Z,89.17
2018-02-14T04:54:26.015Z,89.26
2018-02-14T04:55:26.024Z,89.17
2018-02-14T04:56:26.037Z,89.45
2018-02-14T04:57:26.058Z,88.98
2018-02-14T04:58:26.068Z,89.45
2018-02-14T04:59:26.090Z,89.45
2018-02-14T05:00:26.098Z,89.26
2018-02-14T05:01:26.117Z,89.26
2018-02-14T05:02:26.132Z,89.26
2018-02-14T05:03:26.141Z,89.17
2018-02-14T05:04:26.156Z,88.89
2018-02-14T05:05:26.176Z,88.79
2018-02-14T05:06:26.185Z,88.70
2018-02-14T05:07:26.205Z,88.70
2018-02-14T05:08:26.215Z,88.79
2018-02-14T05:09:26.235Z,89.26
2018-02-14T05:10:26.244Z,89.45
2018-02-14T05:11:26.265Z,89.26
2018-02-14T05:12:26.279Z,89.40
2018-02-14T05:13:26.296Z,89.17
2018-02-14T05:14:26.309Z,89.45
2018-02-14T05:15:26.318Z,89.36
2018-02-14T05:16:26.333Z,89.26
2018-02-14T05:17:26.354Z,89.31
2018-02-14T05:18:26.362Z,89.22
2018-02-14T05:19:26.383Z,89.40
2018-02-14T05:20:26.398Z,89.31
2018-02-14T05:21:26.406Z,89.40
2018-02-14T05:22:26.421Z,89.78
2018-02-14T05:23:26.441Z,89.69
2018-02-14T05:24:26.456Z,89.78
2018-02-14T05:25:26.464Z,90.26
2018-02-14T05:26:26.481Z,89.88
2018-02-14T05:27:26.499Z,89.88
2018-02-14T05:28:26.509Z,90.64
2018-02-14T05:29:26.529Z,90.45
2018-02-14T05:30:26.544Z,90.26
2018-02-14T05:31:26.554Z,89.97
2018-02-14T05:32:26.568Z,89.97
2018-02-14T05:33:26.588Z,89.88
2018-02-14T05:34:26.597Z,90.35
2018-02-14T05:35:26.616Z,90.45
2018-02-14T05:36:26.627Z,90.45
2018-02-14T05:37:26.646Z,90.35
2018-02-14T05:38:26.662Z,90.45
2018-02-14T05:39:26.670Z,90.35
2018-02-14T05:40:26.686Z,89.59
2018-02-14T05:41:26.705Z,90.35
2018-02-14T05:42:26.721Z,89.97
2018-02-14T05:43:26.731Z,90.54
2018-02-14T05:44:26.750Z,90.73
2018-02-14T05:45:26.759Z,90.54
2018-02-14T05:46:26.779Z,89.78
2018-02-14T05:47:26.788Z,89.97
2018-02-14T05:48:26.809Z,90.35
2018-02-14T05:49:26.818Z,90.26
2018-02-14T05:50:26.835Z,90.35
2018-02-14T05:51:26.852Z,90.92
2018-02-14T05:52:26.867Z,89.97
2018-02-14T05:53:26.875Z,90.54
2018-02-14T05:54:26.895Z,90.54
2018-02-14T05:55:26.906Z,90.54
2018-02-14T05:56:26.926Z,90.54
2018-02-14T05:57:26.934Z,90.54
2018-02-14T05:58:26.958Z,90.54
2018-02-14T05:59:26.964Z,90.35
2018-02-14T06:00:27.038Z,90.64
2018-02-14T06:01:26.994Z,90.73
2018-02-14T06:02:27.014Z,89.88
2018-02-14T06:03:27.024Z,90.92
2018-02-14T06:04:27.043Z,90.26
2018-02-14T06:05:27.052Z,90.16
2018-02-14T06:06:27.071Z,89.78
2018-02-14T06:07:27.081Z,89.88
2018-02-14T06:08:27.096Z,89.88
2018-02-14T06:09:27.115Z,89.88
2018-02-14T06:10:27.124Z,89.97
2018-02-14T06:11:27.148Z,89.88
2018-02-14T06:12:27.154Z,89.88
2018-02-14T06:13:27.174Z,89.97
2018-02-14T06:14:27.184Z,89.88
2018-02-14T06:15:27.204Z,89.97
2018-02-14T06:16:27.213Z,89.59
2018-02-14T06:17:27.233Z,89.40
2018-02-14T06:18:27.241Z,89.50
2018-02-14T06:19:27.262Z,89.78
2018-02-14T06:20:27.271Z,89.69
2018-02-14T06:21:27.291Z,90.16
2018-02-14T06:22:27.300Z,89.69
2018-02-14T06:23:27.321Z,90.16
2018-02-14T06:24:27.339Z,89.59
2018-02-14T06:25:27.344Z,89.40
2018-02-14T06:26:27.358Z,89.97
2018-02-14T06:27:27.379Z,89.78
2018-02-14T06:28:27.397Z,89.50
2018-02-14T06:29:27.406Z,89.50
2018-02-14T06:30:27.417Z,89.12
2018-02-14T06:31:27.437Z,89.40
2018-02-14T06:32:27.452Z,89.12
2018-02-14T06:33:27.461Z,89.40
2018-02-14T06:34:27.475Z,89.59
2018-02-14T06:35:27.496Z,89.97
2018-02-14T06:36:27.511Z,89.97
2018-02-14T06:37:27.517Z,89.69
2018-02-14T06:38:27.533Z,89.97
2018-02-14T06:39:27.554Z,89.69
2018-02-14T06:40:27.564Z,89.88
2018-02-14T06:41:27.583Z,89.78
2018-02-14T06:42:27.599Z,89.69
2018-02-14T06:43:27.608Z,89.69
2018-02-14T06:44:27.622Z,89.78
2018-02-14T06:45:27.641Z,89.88
2018-02-14T06:46:27.657Z,89.97
2018-02-14T06:47:27.666Z,89.69
2018-02-14T06:48:27.683Z,89.59
2018-02-14T06:49:27.701Z,89.22
2018-02-14T06:50:27.714Z,89.12
2018-02-14T06:51:27.723Z,89.31
2018-02-14T06:52:27.737Z,89.22
2018-02-14T06:53:27.760Z,89.12
2018-02-14T06:54:27.772Z,89.12
2018-02-14T06:55:27.781Z,89.03
2018-02-14T06:56:27.795Z,89.12
2018-02-14T06:57:27.819Z,89.40
2018-02-14T06:58:27.825Z,89.22
2018-02-14T06:59:27.846Z,89.22
2018-02-14T07:00:27.853Z,89.22
2018-02-14T07:01:27.873Z,89.12
2018-02-14T07:02:27.883Z,88.93
2018-02-14T07:03:27.906Z,88.46
2018-02-14T07:04:27.913Z,88.56
2018-02-14T07:05:27.933Z,88.93
2018-02-14T07:06:27.946Z,88.65
2018-02-14T07:07:27.961Z,88.93
2018-02-14T07:08:27.976Z,88.75
2018-02-14T07:09:27.989Z,88.37
2018-02-14T07:10:28.005Z,88.65
2018-02-14T07:11:28.015Z,88.65
2018-02-14T07:12:28.038Z,88.56
2018-02-14T07:13:28.044Z,88.84
2018-02-14T07:14:28.063Z,88.65
2018-02-14T07:15:28.072Z,88.37
2018-02-14T07:16:28.093Z,88.28
2018-02-14T07:17:28.102Z,88.37
2018-02-14T07:18:28.121Z,87.94
2018-02-14T07:19:28.131Z,87.99
2018-02-14T07:20:28.153Z,87.99
2018-02-14T07:21:28.160Z,87.71
2018-02-14T07:22:28.180Z,87.99
2018-02-14T07:23:28.193Z,87.90
2018-02-14T07:24:28.203Z,88.09
2018-02-14T07:25:28.217Z,88.04
2018-02-14T07:26:28.237Z,88.04
2018-02-14T07:27:28.246Z,88.32
2018-02-14T07:28:28.268Z,87.66
2018-02-14T07:29:28.277Z,86.99
2018-02-14T07:30:28.292Z,87.66
2018-02-14T07:31:28.315Z,87.56
2018-02-14T07:32:28.326Z,87.28
2018-02-14T07:33:28.335Z,87.37
2018-02-14T07:34:28.350Z,86.80
2018-02-14T07:35:28.369Z,87.28
2018-02-14T07:36:28.380Z,87.28
2018-02-14T07:37:28.399Z,87.18
2018-02-14T07:38:28.414Z,86.80
2018-02-14T07:39:28.429Z,87.09
2018-02-14T07:40:28.438Z,86.71
2018-02-14T07:41:28.472Z,86.52
2018-02-14T07:42:28.474Z,86.43
2018-02-14T07:43:28.486Z,86.33
2018-02-14T07:44:28.513Z,86.24
2018-02-14T07:45:28.517Z,86.52
2018-02-14T07:46:28.532Z,86.80
2018-02-14T07:47:28.542Z,86.33
2018-02-14T07:48:28.557Z,86.43
2018-02-14T07:49:28.576Z,86.15
2018-02-14T07:50:28.591Z,86.05
2018-02-14T07:51:28.600Z,85.68
2018-02-14T07:52:28.616Z,85.30
2018-02-14T07:53:28.636Z,84.92
2018-02-14T07:54:28.646Z,84.82
2018-02-14T07:55:28.659Z,84.45
2018-02-14T07:56:28.675Z,84.35
2018-02-14T07:57:28.691Z,84.45
2018-02-14T07:58:28.704Z,84.45
2018-02-14T07:59:28.725Z,83.88
2018-02-14T08:00:28.736Z,83.97
2018-02-14T08:01:28.755Z,83.92
2018-02-14T08:02:28.765Z,83.26
2018-02-14T08:03:28.785Z,82.98
2018-02-14T08:04:28.795Z,82.98
2018-02-14T08:05:28.816Z,82.41
2018-02-14T08:06:28.824Z,82.03
2018-02-14T08:07:28.845Z,81.84
2018-02-14T08:08:28.861Z,81.65
2018-02-14T08:09:28.870Z,81.27
2018-02-14T08:10:28.884Z,80.99
2018-02-14T08:11:28.900Z,81.18
2018-02-14T08:12:28.916Z,81.18
2018-02-14T08:13:28.930Z,80.90
2018-02-14T08:14:28.951Z,80.71
2018-02-14T08:15:28.960Z,80.71
2018-02-14T08:16:28.983Z,81.18
2018-02-14T08:17:28.991Z,80.99
2018-02-14T08:18:29.016Z,81.18
2018-02-14T08:19:29.022Z,81.18
2018-02-14T08:20:29.043Z,80.52
2018-02-14T08:21:29.055Z,80.71
2018-02-14T08:22:29.073Z,80.33
2018-02-14T08:23:29.083Z,79.95
2018-02-14T08:24:29.098Z,80.24
2018-02-14T08:25:29.119Z,80.24
2018-02-14T08:26:29.134Z,79.76
2018-02-14T08:27:29.149Z,79.57
2018-02-14T08:28:29.164Z,79.67
2018-02-14T08:29:29.179Z,79.38
2018-02-14T08:30:29.189Z,79.00
2018-02-14T08:31:29.210Z,79.00
2018-02-14T08:32:29.228Z,79.19
2018-02-14T08:33:29.239Z,79.00
2018-02-14T08:34:29.251Z,78.58
2018-02-14T08:35:29.274Z,78.39
2018-02-14T08:36:29.289Z,78.39
2018-02-14T08:37:29.298Z,78.20
2018-02-14T08:38:29.314Z,78.20
2018-02-14T08:39:29.366Z,77.72
2018-02-14T08:40:29.349Z,77.72
2018-02-14T08:41:29.366Z,77.82
2018-02-14T08:42:29.376Z,77.82
2018-02-14T08:43:29.396Z,77.82
2018-02-14T08:44:29.413Z,77.44
2018-02-14T08:45:29.421Z,77.15
2018-02-14T08:46:29.438Z,77.72
2018-02-14T08:47:29.453Z,77.06
2018-02-14T08:48:29.471Z,77.15
2018-02-14T08:49:29.490Z,76.68
2018-02-14T08:50:29.505Z,76.87
2018-02-14T08:51:29.517Z,76.97
2018-02-14T08:52:29.533Z,76.68
2018-02-14T08:53:29.552Z,76.40
2018-02-14T08:54:29.581Z,76.12
2018-02-14T08:55:29.630Z,75.93
2018-02-14T08:56:29.615Z,75.45
2018-02-14T08:57:29.610Z,75.45
2018-02-14T08:58:29.631Z,75.02
2018-02-14T08:59:29.642Z,75.12
2018-02-14T09:00:29.660Z,74.55
2018-02-14T09:01:29.674Z,74.17
2018-02-14T09:02:29.696Z,73.98
2018-02-14T09:03:29.712Z,72.94
2018-02-14T09:04:29.727Z,72.56
2018-02-14T09:05:29.737Z,71.46
2018-02-14T09:06:29.756Z,69.26
2018-02-14T09:07:29.777Z,64.49
2018-02-14T09:08:29.794Z,58.95
2018-02-14T09:09:29.802Z,55.66
2018-02-14T09:10:29.821Z,53.09
2018-02-14T09:11:29.841Z,51.15
2018-02-14T09:12:29.859Z,49.15
2018-02-14T09:13:29.873Z,47.25
2018-02-14T09:14:29.889Z,46.42
2018-02-14T09:15:29.914Z,45.18
2018-02-14T09:16:29.933Z,44.26
2018-02-14T09:17:29.946Z,43.97
2018-02-14T09:18:29.967Z,43.30
2018-02-14T09:19:29.993Z,42.61
2018-02-14T09:20:30.009Z,43.54
2018-02-14T09:21:30.036Z,44.33
2018-02-14T09:22:30.058Z,43.68
2018-02-14T09:23:30.073Z,42.04
2018-02-14T09:24:30.097Z,41.88
2018-02-14T09:25:30.124Z,42.25
2018-02-14T09:26:30.149Z,40.97
2018-02-14T09:27:30.165Z,40.01
2018-02-14T09:28:30.190Z,39.06
2018-02-14T09:29:30.218Z,38.87
2018-02-14T09:30:30.242Z,38.12
2018-02-14T09:31:30.266Z,37.92
2018-02-14T09:32:30.298Z,37.74
2018-02-14T09:33:30.318Z,37.06
2018-02-14T09:34:30.344Z,36.88
2018-02-14T09:35:30.376Z,37.06
2018-02-14T09:36:30.396Z,36.43
2018-02-14T09:37:30.417Z,35.47
2018-02-14T09:38:30.449Z,34.41
2018-02-14T09:39:30.465Z,35.35
2018-02-14T09:40:30.501Z,36.18
2018-02-14T09:41:30.517Z,36.77
2018-02-14T09:42:30.557Z,36.76
2018-02-14T09:43:30.599Z,36.76
2018-02-14T09:44:30.616Z,36.12
2018-02-14T09:45:30.630Z,35.15
2018-02-14T09:46:30.666Z,36.74
2018-02-14T09:47:30.683Z,38.56
2018-02-14T09:48:30.722Z,37.99
2018-02-14T09:49:30.736Z,38.09
2018-02-14T09:50:30.773Z,37.80
2018-02-14T09:51:30.792Z,37.86
2018-02-14T09:52:30.823Z,39.19
2018-02-14T09:53:30.860Z,39.57
2018-02-14T09:54:30.874Z,39.02
2018-02-14T09:55:30.908Z,38.81
2018-02-14T09:56:30.930Z,39.84
2018-02-14T09:57:30.966Z,40.33
2018-02-14T09:58:30.986Z,39.32
2018-02-14T09:59:31.025Z,37.73
2018-02-14T10:00:31.042Z,37.13
2018-02-14T10:01:31.076Z,37.52
2018-02-14T10:02:31.098Z,37.13
2018-02-14T10:03:31.132Z,37.82
2018-02-14T10:04:31.156Z,36.87
2018-02-14T10:05:31.192Z,36.10
2018-02-14T10:06:31.211Z,36.20
2018-02-14T10:07:31.245Z,36.26
2018-02-14T10:08:31.275Z,37.78
2018-02-14T10:09:31.297Z,38.34
2018-02-14T10:10:31.326Z,38.90
2018-02-14T10:11:31.360Z,38.90
2018-02-14T10:12:31.388Z,39.48
2018-02-14T10:13:31.410Z,38.85
2018-02-14T10:14:31.439Z,38.07
2018-02-14T10:15:31.476Z,39.09
2018-02-14T10:16:31.497Z,39.40
2018-02-14T10:17:31.532Z,38.45
2018-02-14T10:18:31.558Z,38.28
2018-02-14T10:19:31.583Z,37.06
2018-02-14T10:20:31.609Z,36.20
2018-02-14T10:21:31.643Z,35.64
2018-02-14T10:22:31.667Z,35.46
2018-02-14T10:23:31.703Z,35.53
2018-02-14T10:24:31.724Z,36.10
2018-02-14T10:25:31.757Z,36.47
2018-02-14T10:26:31.794Z,36.30
2018-02-14T10:27:31.814Z,36.37
2018-02-14T10:28:31.840Z,36.68
2018-02-14T10:29:31.872Z,35.46
2018-02-14T10:30:31.907Z,35.74
2018-02-14T10:31:31.925Z,34.98
2018-02-14T10:32:31.959Z,34.81
2018-02-14T10:33:31.982Z,33.93
2018-02-14T10:34:32.018Z,34.52
2018-02-14T10:35:32.043Z,34.05
2018-02-14T10:36:32.075Z,33.29
2018-02-14T10:37:32.097Z,32.98
2018-02-14T10:38:32.125Z,33.74
2018-02-14T10:39:32.160Z,33.66
2018-02-14T10:40:32.188Z,33.55
2018-02-14T10:41:32.212Z,33.91
2018-02-14T10:42:32.248Z,34.47
2018-02-14T10:43:32.271Z,35.63
2018-02-14T10:44:32.307Z,35.35
2018-02-14T10:45:32.329Z,35.63
2018-02-14T10:46:32.363Z,35.53
2018-02-14T10:47:32.386Z,35.04
2018-02-14T10:48:32.416Z,35.52
2018-02-14T10:49:32.449Z,35.80
2018-02-14T10:50:32.473Z,36.47
2018-02-14T10:51:32.507Z,36.37
2018-02-14T10:52:32.531Z,35.60
2018-02-14T10:53:32.564Z,36.35
2018-02-14T10:54:32.595Z,36.55
2018-02-14T10:55:32.618Z,36.18
2018-02-14T10:56:32.647Z,36.26
2018-02-14T10:57:32.680Z,36.18
2018-02-14T10:58:32.703Z,35.89
2018-02-14T10:59:32.737Z,36.26
2018-02-14T11:00:32.759Z,35.44
2018-02-14T11:01:32.797Z,34.48
2018-02-14T11:02:32.815Z,34.31
2018-02-14T11:03:32.849Z,34.12
2018-02-14T11:04:32.872Z,33.55
2018-02-14T11:05:32.905Z,33.17
2018-02-14T11:06:32.936Z,33.99
2018-02-14T11:07:32.956Z,35.50
2018-02-14T11:08:32.985Z,36.35
2018-02-14T11:09:33.017Z,36.37
2018-02-14T11:10:33.041Z,35.53
2018-02-14T11:11:33.075Z,35.25
2018-02-14T11:12:33.102Z,34.39
2018-02-14T11:13:33.123Z,34.03
2018-02-14T11:14:33.153Z,33.66
2018-02-14T11:15:33.192Z,32.88
2018-02-14T11:16:33.216Z,33.55
2018-02-14T11:17:33.237Z,33.64
2018-02-14T11:18:33.268Z,33.84
2018-02-14T11:19:33.334Z,34.03
2018-02-14T11:20:33.322Z,33.36
2018-02-14T11:21:33.356Z,33.55
2018-02-14T11:22:33.404Z,33.37
2018-02-14T11:23:33.406Z,33.07
2018-02-14T11:24:33.440Z,33.74
2018-02-14T11:25:33.468Z,33.66
2018-02-14T11:26:33.496Z,33.09
2018-02-14T11:27:33.519Z,33.00
2018-02-14T11:28:33.547Z,32.34
2018-02-14T11:29:33.582Z,31.02
2018-02-14T11:30:33.609Z,30.91
2018-02-14T11:31:33.634Z,31.09
2018-02-14T11:32:33.661Z,31.58
2018-02-14T11:33:33.695Z,30.82
2018-02-14T11:34:33.723Z,30.23
2018-02-14T11:35:33.750Z,29.83
2018-02-14T11:36:33.780Z,29.91
2018-02-14T11:37:33.803Z,30.40
2018-02-14T11:38:33.836Z,29.72
2018-02-14T11:39:33.870Z,29.82
2018-02-14T11:40:33.892Z,30.02
2018-02-14T11:41:33.959Z,30.52
2018-02-14T11:42:33.947Z,30.34
2018-02-14T11:43:33.981Z,28.51
2018-02-14T11:44:34.004Z,28.03
2018-02-14T11:45:34.036Z,28.13
2018-02-14T11:46:34.065Z,28.12
2018-02-14T11:47:34.099Z,28.32
2018-02-14T11:48:34.117Z,27.66
2018-02-14T11:49:34.149Z,27.75
2018-02-14T11:50:34.173Z,28.20
2018-02-14T11:51:34.206Z,29.14
2018-02-14T11:52:34.229Z,29.61
2018-02-14T11:53:34.256Z,29.53
2018-02-14T11:54:34.285Z,28.78
2018-02-14T11:55:34.323Z,28.67
2018-02-14T11:56:34.341Z,28.97
2018-02-14T11:57:34.373Z,28.14
2018-02-14T11:58:34.395Z,27.19
2018-02-14T11:59:34.424Z,27.47
2018-02-14T12:00:34.462Z,27.73
2018-02-14T12:01:34.479Z,28.02
2018-02-14T12:02:34.512Z,28.31
2018-02-14T12:03:34.534Z,28.51
2018-02-14T12:04:34.567Z,27.94
2018-02-14T12:05:34.590Z,27.66
2018-02-14T12:06:34.622Z,27.64
2018-02-14T12:07:34.645Z,28.02
2018-02-14T12:08:34.671Z,28.20
2018-02-14T12:09:34.705Z,28.50
2018-02-14T12:10:34.731Z,28.78
2018-02-14T12:11:34.754Z,28.50
2018-02-14T12:12:34.787Z,28.31
2018-02-14T12:13:34.816Z,28.03
2018-02-14T12:14:34.842Z,27.37
2018-02-14T12:15:34.868Z,26.61
2018-02-14T12:16:34.895Z,27.08
2018-02-14T12:17:34.920Z,26.61
2018-02-14T12:18:34.943Z,27.26
2018-02-14T12:19:34.976Z,27.28
2018-02-14T12:20:35.004Z,26.14
2018-02-14T12:21:35.024Z,25.56
2018-02-14T12:22:35.053Z,25.85
2018-02-14T12:23:35.085Z,26.13
2018-02-14T12:24:35.107Z,26.61
2018-02-14T12:25:35.140Z,26.70
2018-02-14T12:26:35.166Z,27.16
2018-02-14T12:27:35.196Z,26.98
2018-02-14T12:28:35.215Z,27.47
2018-02-14T12:29:35.241Z,26.43
2018-02-14T12:30:35.275Z,26.42
2018-02-14T12:31:35.297Z,26.98
2018-02-14T12:32:35.323Z,27.26
2018-02-14T12:33:35.356Z,27.45
2018-02-14T12:34:35.382Z,27.26
2018-02-14T12:35:35.402Z,27.16
2018-02-14T12:36:35.431Z,26.61
2018-02-14T12:37:35.461Z,26.50
2018-02-14T12:38:35.488Z,27.07
2018-02-14T12:39:35.510Z,27.16
2018-02-14T12:40:35.536Z,27.15
2018-02-14T12:41:35.568Z,27.45
2018-02-14T12:42:35.588Z,27.36
2018-02-14T12:43:35.617Z,26.79
2018-02-14T12:44:35.641Z,26.42
2018-02-14T12:45:35.667Z,26.61
2018-02-14T12:46:35.694Z,26.68
2018-02-14T12:47:35.725Z,27.07
2018-02-14T12:48:35.747Z,26.61
2018-02-14T12:49:35.778Z,26.22
2018-02-14T12:50:35.800Z,26.42
2018-02-14T12:51:35.831Z,25.85
2018-02-14T12:52:35.851Z,25.67